Time;durP1;ratioP1;P1;durP2;ratioP2;P2;SDS_P1;SDS_P2;PMS_P1;PMS_P2;Temp;Humidity;BMP_temperature;BMP_pressure;BME280_temperature;BME280_humidity;BME280_pressure;Samples;Min_cycle;Max_cycle;Signal;HPM_P1;HPM_P2
2021/05/30 00:01:53;;;;;;;0.20;0.20;;;12.10;99.90;;;;;;4444816;32;20193;-64
2021/05/30 00:04:19;;;;;;;0.40;0.40;;;12.00;99.90;;;;;;4429500;32;20134;-64
2021/05/30 00:06:44;;;;;;;0.30;0.30;;;12.10;99.90;;;;;;4430163;32;20074;-65
2021/05/30 00:09:10;;;;;;;0.30;0.30;;;12.10;99.90;;;;;;4445008;32;20464;-65
2021/05/30 00:11:36;;;;;;;0.28;0.28;;;11.90;99.90;;;;;;4444206;32;20156;-64
2021/05/30 00:14:03;;;;;;;0.37;0.37;;;11.80;99.90;;;;;;4401795;32;20069;-65
2021/05/30 00:16:29;;;;;;;0.40;0.40;;;11.90;99.90;;;;;;4398775;32;20521;-65
2021/05/30 00:18:55;;;;;;;0.35;0.35;;;11.80;99.90;;;;;;4413154;32;20121;-64
2021/05/30 00:21:21;;;;;;;0.50;0.50;;;11.80;99.90;;;;;;4422801;32;20384;-65
2021/05/30 00:23:46;;;;;;;0.40;0.40;;;11.80;99.90;;;;;;4415166;32;20081;-64
2021/05/30 00:26:12;;;;;;;0.30;0.30;;;11.80;99.90;;;;;;4415040;32;20498;-64
2021/05/30 00:28:38;;;;;;;0.73;0.62;;;11.80;99.90;;;;;;4414686;32;20156;-64
2021/05/30 00:31:03;;;;;;;0.30;0.30;;;11.80;99.90;;;;;;4414602;32;20130;-64
2021/05/30 00:33:29;;;;;;;0.70;0.30;;;11.70;99.90;;;;;;4428189;32;20084;-65
2021/05/30 00:35:54;;;;;;;0.20;0.20;;;11.60;99.90;;;;;;4429057;32;20514;-64
2021/05/30 00:38:20;;;;;;;0.35;0.35;;;11.60;99.90;;;;;;4428855;32;20451;-65
2021/05/30 00:40:46;;;;;;;0.43;0.43;;;11.50;99.90;;;;;;4415484;32;20668;-64
2021/05/30 00:43:11;;;;;;;0.40;0.40;;;11.40;99.90;;;;;;4413584;32;20085;-64
2021/05/30 00:45:37;;;;;;;0.30;0.30;;;11.30;99.90;;;;;;4427367;32;20413;-63
2021/05/30 00:48:03;;;;;;;1.30;0.43;;;11.20;99.90;;;;;;4415333;32;20073;-65
2021/05/30 00:50:29;;;;;;;1.95;0.43;;;11.10;99.90;;;;;;4400094;32;20582;-65
2021/05/30 00:52:54;;;;;;;0.22;0.22;;;11.20;99.90;;;;;;4429475;32;20068;-65
2021/05/30 00:55:21;;;;;;;0.30;0.30;;;11.40;99.90;;;;;;4432002;32;20516;-65
2021/05/30 00:57:47;;;;;;;0.30;0.30;;;11.30;99.90;;;;;;4417399;32;20478;-64
2021/05/30 01:00:13;;;;;;;0.70;0.40;;;11.20;99.90;;;;;;4429270;32;20077;-64
2021/05/30 01:02:39;;;;;;;0.62;0.40;;;11.00;99.90;;;;;;4402138;32;20104;-65
2021/05/30 01:05:07;;;;;;;0.30;0.30;;;11.00;99.90;;;;;;4429949;32;20420;-65
2021/05/30 01:07:40;;;;;;;0.57;0.57;;;11.00;99.90;;;;;;4430303;32;20069;-65
2021/05/30 01:10:18;;;;;;;0.30;0.30;;;11.10;99.90;;;;;;4404713;32;20117;-64
2021/05/30 01:12:47;;;;;;;0.20;0.20;;;10.90;99.90;;;;;;4436675;32;20139;-64
2021/05/30 01:15:13;;;;;;;4.57;1.12;;;10.80;99.90;;;;;;4445807;32;20073;-65
2021/05/30 01:17:41;;;;;;;0.30;0.30;;;10.80;99.90;;;;;;4447278;32;20069;-65
2021/05/30 01:20:10;;;;;;;1.85;0.40;;;10.80;99.90;;;;;;4431507;32;20081;-65
2021/05/30 01:22:37;;;;;;;0.40;0.40;;;10.80;99.90;;;;;;4446702;32;20364;-65
2021/05/30 01:25:03;;;;;;;0.60;0.60;;;10.70;99.90;;;;;;4447037;32;20107;-65
2021/05/30 01:27:28;;;;;;;0.68;0.68;;;10.80;99.90;;;;;;4445808;32;20076;-65
2021/05/30 01:29:54;;;;;;;0.20;0.20;;;10.90;99.90;;;;;;4445837;32;20538;-64
2021/05/30 01:32:19;;;;;;;0.70;0.70;;;10.80;99.90;;;;;;4446518;32;20077;-65
2021/05/30 01:34:45;;;;;;;0.35;0.30;;;10.80;99.90;;;;;;4446252;32;20065;-64
2021/05/30 01:37:10;;;;;;;0.47;0.47;;;10.80;99.90;;;;;;4445780;32;20472;-63
2021/05/30 01:39:35;;;;;;;0.50;0.50;;;10.90;99.90;;;;;;4446255;32;20069;-64
2021/05/30 01:42:02;;;;;;;0.30;0.30;;;10.70;99.90;;;;;;4446252;32;20583;-64
2021/05/30 01:44:27;;;;;;;1.00;0.80;;;10.70;99.90;;;;;;4435322;32;20564;-63
2021/05/30 01:46:53;;;;;;;0.35;0.35;;;10.60;99.90;;;;;;4430280;32;20069;-64
2021/05/30 01:49:18;;;;;;;0.50;0.50;;;10.60;99.90;;;;;;4430839;32;20395;-64
2021/05/30 01:51:44;;;;;;;0.50;0.50;;;10.50;99.90;;;;;;4430583;32;20072;-64
2021/05/30 01:54:13;;;;;;;1.58;0.90;;;10.50;99.90;;;;;;4429703;32;20062;-64
2021/05/30 01:56:55;;;;;;;0.43;0.40;;;10.50;99.90;;;;;;4430153;32;20116;-64
2021/05/30 01:59:21;;;;;;;0.62;0.52;;;10.60;99.90;;;;;;4431276;32;20070;-64
2021/05/30 02:01:49;;;;;;;0.60;0.60;;;10.60;99.90;;;;;;4416608;32;20415;-65
2021/05/30 02:04:15;;;;;;;0.50;0.50;;;10.60;99.90;;;;;;4416720;32;20169;-64
2021/05/30 02:06:43;;;;;;;0.30;0.30;;;10.60;99.90;;;;;;4431271;32;20554;-65
2021/05/30 02:09:09;;;;;;;0.57;0.52;;;10.60;99.90;;;;;;4430506;32;20112;-63
2021/05/30 02:11:37;;;;;;;6.70;0.82;;;10.60;99.90;;;;;;4416784;32;20593;-65
2021/05/30 02:14:03;;;;;;;0.50;0.50;;;10.50;99.90;;;;;;4431100;32;20708;-64
2021/05/30 02:16:31;;;;;;;4.07;0.95;;;10.50;99.90;;;;;;4430818;32;20073;-64
2021/05/30 02:18:57;;;;;;;0.40;0.40;;;10.40;99.90;;;;;;4432262;32;20069;-63
2021/05/30 02:21:22;;;;;;;0.30;0.30;;;10.40;99.90;;;;;;4444383;32;20069;-64
2021/05/30 02:23:48;;;;;;;0.45;0.45;;;10.40;99.90;;;;;;4431306;32;20073;-64
2021/05/30 02:26:14;;;;;;;0.40;0.40;;;10.40;99.90;;;;;;4444047;32;20086;-64
2021/05/30 02:28:39;;;;;;;0.60;0.60;;;10.40;99.90;;;;;;4445576;32;20439;-64
2021/05/30 02:31:05;;;;;;;0.45;0.30;;;10.30;99.90;;;;;;4445138;32;20081;-65
2021/05/30 02:33:30;;;;;;;0.80;0.68;;;10.20;99.90;;;;;;4444607;32;20502;-65
2021/05/30 02:35:56;;;;;;;0.93;0.50;;;10.20;99.90;;;;;;4445560;32;20081;-64
2021/05/30 02:38:21;;;;;;;0.30;0.30;;;10.10;99.90;;;;;;4444532;32;20123;-63
2021/05/30 02:40:47;;;;;;;0.80;0.52;;;9.90;99.90;;;;;;4445503;32;20085;-64
2021/05/30 02:43:12;;;;;;;0.82;0.37;;;9.90;99.90;;;;;;4442608;32;20592;-64
2021/05/30 02:45:38;;;;;;;0.40;0.40;;;9.90;99.90;;;;;;4429010;32;20156;-64
2021/05/30 02:48:04;;;;;;;1.35;0.73;;;9.90;99.90;;;;;;4429750;32;20082;-63
2021/05/30 02:50:29;;;;;;;0.30;0.30;;;10.00;99.90;;;;;;4429946;32;20072;-64
2021/05/30 02:52:55;;;;;;;7.18;0.73;;;10.00;99.90;;;;;;4430427;32;20436;-64
2021/05/30 02:55:20;;;;;;;1.02;0.55;;;10.00;99.90;;;;;;4429850;32;20131;-64
2021/05/30 02:57:46;;;;;;;1.83;0.60;;;10.00;99.90;;;;;;4428682;32;20078;-63
2021/05/30 03:00:12;;;;;;;0.47;0.47;;;9.90;99.90;;;;;;4428700;32;20064;-63
2021/05/30 03:02:38;;;;;;;1.77;0.88;;;9.90;99.90;;;;;;4430187;32;20058;-63
2021/05/30 03:05:06;;;;;;;0.57;0.55;;;9.90;99.90;;;;;;4414895;32;20090;-64
2021/05/30 03:07:31;;;;;;;0.70;0.50;;;10.00;99.90;;;;;;4416266;32;20077;-64
2021/05/30 03:09:57;;;;;;;0.20;0.20;;;10.10;99.90;;;;;;4430162;32;20068;-64
2021/05/30 03:12:22;;;;;;;1.00;0.43;;;10.10;99.90;;;;;;4433987;32;20621;-64
2021/05/30 03:14:48;;;;;;;0.50;0.50;;;10.00;99.90;;;;;;4430242;32;20101;-64
2021/05/30 03:17:14;;;;;;;0.40;0.40;;;9.90;99.90;;;;;;4444319;32;20472;-64
2021/05/30 03:19:39;;;;;;;1.30;0.65;;;9.90;99.90;;;;;;4444857;32;20490;-64
2021/05/30 03:22:05;;;;;;;0.90;0.50;;;9.90;99.90;;;;;;4443697;32;20093;-64
2021/05/30 03:24:31;;;;;;;0.90;0.52;;;9.90;99.90;;;;;;4418224;32;20081;-65
2021/05/30 03:26:56;;;;;;;0.40;0.40;;;9.90;99.90;;;;;;4444811;32;20073;-64
2021/05/30 03:29:22;;;;;;;2.22;1.15;;;9.90;99.90;;;;;;4445154;32;20076;-64
2021/05/30 03:31:47;;;;;;;2.95;0.77;;;9.90;99.90;;;;;;4444571;32;20093;-64
2021/05/30 03:34:13;;;;;;;1.02;0.55;;;10.00;99.90;;;;;;4444702;32;20136;-64
2021/05/30 03:36:38;;;;;;;0.30;0.30;;;10.00;99.90;;;;;;4445541;32;20118;-64
2021/05/30 03:39:06;;;;;;;0.37;0.37;;;10.00;99.90;;;;;;4445386;32;20068;-63
2021/05/30 03:41:40;;;;;;;1.48;0.88;;;10.00;99.90;;;;;;4443856;32;20061;-64
2021/05/30 03:44:06;;;;;;;0.40;0.40;;;10.00;99.90;;;;;;4436588;32;20072;-64
2021/05/30 03:46:33;;;;;;;1.00;0.37;;;10.00;99.90;;;;;;4415156;32;20153;-64
2021/05/30 03:48:58;;;;;;;1.02;0.85;;;9.90;99.90;;;;;;4415794;32;20073;-65
2021/05/30 03:51:24;;;;;;;2.33;0.73;;;10.00;99.90;;;;;;4428859;32;20486;-65
2021/05/30 03:53:50;;;;;;;0.52;0.52;;;10.00;99.90;;;;;;4414584;32;20057;-65
2021/05/30 03:56:15;;;;;;;0.55;0.55;;;10.00;99.90;;;;;;4429280;32;21097;-64
2021/05/30 03:58:41;;;;;;;0.22;0.22;;;10.10;99.90;;;;;;4429148;32;20096;-64
2021/05/30 04:01:07;;;;;;;7.37;2.50;;;10.20;99.90;;;;;;4428578;32;20103;-65
2021/05/30 04:03:32;;;;;;;0.65;0.55;;;10.10;99.90;;;;;;4429016;32;20134;-64
2021/05/30 04:05:57;;;;;;;0.57;0.57;;;10.20;99.90;;;;;;4429200;32;20065;-65
2021/05/30 04:08:23;;;;;;;0.65;0.65;;;10.20;99.90;;;;;;4414373;32;20094;-65
2021/05/30 04:10:49;;;;;;;0.30;0.30;;;10.20;99.90;;;;;;4428797;32;20542;-65
2021/05/30 04:13:15;;;;;;;0.40;0.40;;;10.40;99.90;;;;;;4439168;32;20088;-64
2021/05/30 04:15:41;;;;;;;0.30;0.30;;;10.50;99.90;;;;;;4416099;32;20073;-64
2021/05/30 04:18:06;;;;;;;0.82;0.60;;;10.60;99.90;;;;;;4444313;32;20074;-64
2021/05/30 04:20:32;;;;;;;0.30;0.30;;;10.80;99.90;;;;;;4445001;32;20140;-64
2021/05/30 04:22:57;;;;;;;2.00;0.50;;;10.80;99.90;;;;;;4430612;32;20081;-64
2021/05/30 04:25:23;;;;;;;13.43;0.68;;;10.90;99.90;;;;;;4444646;32;20471;-64
2021/05/30 04:27:48;;;;;;;0.40;0.40;;;11.00;99.90;;;;;;4420447;32;20076;-63
2021/05/30 04:30:15;;;;;;;0.30;0.30;;;10.90;99.90;;;;;;4445459;32;20069;-63
2021/05/30 04:32:42;;;;;;;0.60;0.60;;;11.00;99.90;;;;;;4447417;32;20168;-65
2021/05/30 04:35:08;;;;;;;0.20;0.20;;;11.10;99.90;;;;;;4446038;32;20062;-63
2021/05/30 04:37:34;;;;;;;0.50;0.50;;;11.10;99.90;;;;;;4432344;32;20076;-63
2021/05/30 04:40:00;;;;;;;0.40;0.40;;;11.20;99.90;;;;;;4446842;32;20065;-63
2021/05/30 04:42:25;;;;;;;0.20;0.20;;;11.20;99.90;;;;;;4433134;32;20089;-64
2021/05/30 04:44:51;;;;;;;0.30;0.30;;;11.30;99.90;;;;;;4432027;32;20082;-65
2021/05/30 04:47:17;;;;;;;1.40;0.98;;;11.30;99.90;;;;;;4431579;32;20085;-64
2021/05/30 04:49:43;;;;;;;0.37;0.37;;;11.40;99.90;;;;;;4431614;32;20506;-64
2021/05/30 04:52:10;;;;;;;0.52;0.50;;;11.50;99.90;;;;;;4431153;32;20157;-63
2021/05/30 04:54:36;;;;;;;0.40;0.40;;;11.70;99.90;;;;;;4417783;32;20073;-63
2021/05/30 04:57:02;;;;;;;1.12;0.40;;;11.90;99.90;;;;;;4417551;32;20061;-65
2021/05/30 04:59:28;;;;;;;0.47;0.47;;;11.90;99.90;;;;;;4430941;32;20069;-63
2021/05/30 05:01:53;;;;;;;0.40;0.40;;;12.00;99.90;;;;;;4404193;32;20124;-65
2021/05/30 05:04:19;;;;;;;0.37;0.37;;;12.00;99.90;;;;;;4430671;32;20073;-65
2021/05/30 05:06:44;;;;;;;0.65;0.65;;;12.10;99.90;;;;;;4432142;32;20069;-65
2021/05/30 05:09:10;;;;;;;0.40;0.40;;;12.20;99.90;;;;;;4431873;32;20093;-64
2021/05/30 05:11:35;;;;;;;0.50;0.47;;;12.30;99.90;;;;;;4431361;32;20057;-64
2021/05/30 05:14:02;;;;;;;0.40;0.40;;;12.30;99.90;;;;;;4445675;32;20130;-63
2021/05/30 05:16:28;;;;;;;0.35;0.35;;;12.40;99.90;;;;;;4445574;32;20133;-64
2021/05/30 05:18:54;;;;;;;0.32;0.32;;;12.40;99.90;;;;;;4445713;32;20428;-63
2021/05/30 05:21:19;;;;;;;0.30;0.30;;;12.50;99.90;;;;;;4446237;32;20065;-63
2021/05/30 05:23:45;;;;;;;0.20;0.20;;;12.60;99.90;;;;;;4447406;32;20069;-65
2021/05/30 05:26:10;;;;;;;0.40;0.40;;;12.50;99.90;;;;;;4444757;32;20064;-64
2021/05/30 05:28:37;;;;;;;0.30;0.30;;;12.60;99.90;;;;;;4432716;32;20062;-64
2021/05/30 05:31:03;;;;;;;0.30;0.30;;;12.70;99.90;;;;;;4446071;32;20081;-65
2021/05/30 05:33:29;;;;;;;0.25;0.25;;;12.80;99.90;;;;;;4418540;32;20420;-64
2021/05/30 05:35:54;;;;;;;0.45;0.45;;;12.80;99.90;;;;;;4445818;32;20072;-64
2021/05/30 05:38:20;;;;;;;0.20;0.20;;;12.90;99.90;;;;;;4447513;32;20113;-64
2021/05/30 05:40:46;;;;;;;0.20;0.20;;;12.90;99.90;;;;;;4439131;32;20115;-65
2021/05/30 05:43:11;;;;;;;0.20;0.20;;;13.00;99.90;;;;;;4431020;32;20061;-64
2021/05/30 05:45:37;;;;;;;0.50;0.40;;;13.10;99.90;;;;;;4430340;32;20060;-63
2021/05/30 05:48:08;;;;;;;0.70;0.50;;;13.10;99.90;;;;;;4417627;32;20124;-64
2021/05/30 05:50:34;;;;;;;;;;;13.20;99.90;;;;;;4430898;32;20106;-64
2021/05/30 05:52:59;;;;;;;0.28;0.28;;;13.20;99.90;;;;;;4430585;32;19941;-65
2021/05/30 05:55:24;;;;;;;1.45;0.55;;;13.30;99.90;;;;;;4430564;32;20065;-63
2021/05/30 05:57:52;;;;;;;5.87;1.35;;;13.30;99.90;;;;;;4430909;32;20493;-64
2021/05/30 06:00:21;;;;;;;1.23;0.82;;;13.40;99.90;;;;;;4415787;32;20092;-65
2021/05/30 06:02:49;;;;;;;0.30;0.30;;;13.50;99.90;;;;;;4417073;32;20090;-64
2021/05/30 06:05:18;;;;;;;0.37;0.37;;;13.60;99.90;;;;;;4417023;32;20061;-64
2021/05/30 06:07:44;;;;;;;0.25;0.25;;;13.70;99.90;;;;;;4431147;32;20129;-66
2021/05/30 06:10:11;;;;;;;0.20;0.20;;;13.70;99.90;;;;;;4416531;32;20066;-64
2021/05/30 06:12:36;;;;;;;0.30;0.30;;;13.70;99.90;;;;;;4416884;32;20062;-65
2021/05/30 06:15:03;;;;;;;0.32;0.32;;;13.80;99.90;;;;;;4429254;32;20510;-64
2021/05/30 06:17:28;;;;;;;0.25;0.25;;;13.80;99.90;;;;;;4430359;32;20060;-63
2021/05/30 06:19:54;;;;;;;0.20;0.20;;;13.90;99.90;;;;;;4430934;32;20436;-63
2021/05/30 06:22:19;;;;;;;4.28;1.48;;;14.00;99.90;;;;;;4430178;32;20120;-65
2021/05/30 06:24:45;;;;;;;0.35;0.35;;;14.00;99.90;;;;;;4430429;32;20451;-64
2021/05/30 06:27:11;;;;;;;0.20;0.20;;;14.10;99.90;;;;;;4415861;32;20065;-64
2021/05/30 06:29:37;;;;;;;0.40;0.40;;;14.10;99.90;;;;;;4403268;32;20069;-64
2021/05/30 06:32:03;;;;;;;0.30;0.30;;;14.20;99.90;;;;;;4415852;32;20074;-63
2021/05/30 06:34:28;;;;;;;0.30;0.30;;;14.20;99.90;;;;;;4429936;32;20201;-64
2021/05/30 06:36:54;;;;;;;0.22;0.22;;;14.30;99.90;;;;;;4430855;32;20116;-64
2021/05/30 06:39:21;;;;;;;0.20;0.20;;;14.40;99.90;;;;;;4430127;32;20082;-64
2021/05/30 06:41:46;;;;;;;0.47;0.47;;;14.40;99.90;;;;;;4415605;32;20078;-64
2021/05/30 06:44:12;;;;;;;0.20;0.20;;;14.50;99.90;;;;;;4438067;32;20546;-65
2021/05/30 06:46:37;;;;;;;0.20;0.20;;;14.50;99.90;;;;;;4444827;32;20077;-64
2021/05/30 06:49:04;;;;;;;0.65;0.52;;;14.50;99.20;;;;;;4445932;32;20062;-65
2021/05/30 06:51:31;;;;;;;0.20;0.20;;;14.60;99.50;;;;;;4444259;32;20061;-66
2021/05/30 06:53:57;;;;;;;0.43;0.40;;;14.60;99.90;;;;;;4445963;32;20077;-64
2021/05/30 06:56:23;;;;;;;0.30;0.30;;;14.60;99.60;;;;;;4429990;32;20115;-64
2021/05/30 06:58:49;;;;;;;0.20;0.20;;;14.70;98.80;;;;;;4431870;32;20574;-63
2021/05/30 07:01:18;;;;;;;0.30;0.30;;;14.70;98.80;;;;;;4431450;32;20124;-62
2021/05/30 07:03:44;;;;;;;0.37;0.37;;;14.90;98.80;;;;;;4444751;32;20419;-63
2021/05/30 07:06:09;;;;;;;0.60;0.50;;;15.00;98.50;;;;;;4431003;32;20065;-63
2021/05/30 07:08:35;;;;;;;0.32;0.32;;;15.00;98.60;;;;;;4445591;32;20560;-63
2021/05/30 07:11:00;;;;;;;0.50;0.50;;;15.10;97.70;;;;;;4432106;32;20432;-65
2021/05/30 07:13:26;;;;;;;0.50;0.50;;;15.10;97.20;;;;;;4433853;32;20425;-64
2021/05/30 07:15:52;;;;;;;0.30;0.30;;;15.20;96.40;;;;;;4428544;32;20080;-66
2021/05/30 07:18:19;;;;;;;0.50;0.50;;;15.20;96.90;;;;;;4429762;32;20078;-63
2021/05/30 07:20:45;;;;;;;0.20;0.20;;;15.30;96.50;;;;;;4415225;32;20530;-64
2021/05/30 07:23:11;;;;;;;0.20;0.20;;;15.30;95.80;;;;;;4416580;32;20081;-64
2021/05/30 07:25:37;;;;;;;0.20;0.20;;;15.40;96.20;;;;;;4430324;32;20061;-64
2021/05/30 07:28:04;;;;;;;1.00;0.50;;;15.60;96.00;;;;;;4414807;32;20462;-65
2021/05/30 07:30:30;;;;;;;0.30;0.30;;;15.70;95.10;;;;;;4415274;32;20069;-65
2021/05/30 07:32:55;;;;;;;0.40;0.40;;;15.80;93.90;;;;;;4416650;32;20081;-65
2021/05/30 07:35:21;;;;;;;0.37;0.37;;;15.80;93.10;;;;;;4386704;32;20070;-64
2021/05/30 07:37:46;;;;;;;0.52;0.52;;;15.90;92.60;;;;;;4426237;32;20088;-63
2021/05/30 07:40:12;;;;;;;1.17;0.85;;;15.90;92.40;;;;;;4416056;32;20078;-65
2021/05/30 07:42:38;;;;;;;1.45;0.35;;;16.10;91.90;;;;;;4427766;32;20066;-65
2021/05/30 07:45:05;;;;;;;1.12;0.62;;;16.20;91.90;;;;;;4443587;32;20072;-64
2021/05/30 07:47:30;;;;;;;0.22;0.22;;;16.20;91.80;;;;;;4431531;32;20696;-63
2021/05/30 07:49:56;;;;;;;0.20;0.20;;;16.30;91.50;;;;;;4445306;32;20087;-64
2021/05/30 07:52:21;;;;;;;0.32;0.32;;;16.30;91.50;;;;;;4430664;32;20068;-65
2021/05/30 07:54:47;;;;;;;0.30;0.30;;;16.40;91.30;;;;;;4444978;32;20182;-64
2021/05/30 07:57:13;;;;;;;0.28;0.28;;;16.50;90.60;;;;;;4430907;32;20525;-65
2021/05/30 07:59:38;;;;;;;0.20;0.20;;;16.60;89.80;;;;;;4431831;32;20061;-64
2021/05/30 08:02:04;;;;;;;0.20;0.20;;;16.70;89.40;;;;;;4432286;32;20534;-64
2021/05/30 08:04:29;;;;;;;0.47;0.47;;;16.70;90.50;;;;;;4446705;32;20159;-64
2021/05/30 08:06:55;;;;;;;0.30;0.30;;;17.00;90.20;;;;;;4448133;32;20179;-65
2021/05/30 08:09:20;;;;;;;0.30;0.30;;;17.00;90.00;;;;;;4448385;32;20073;-64
2021/05/30 08:11:46;;;;;;;0.40;0.40;;;17.10;90.50;;;;;;4432768;32;20065;-64
2021/05/30 08:14:11;;;;;;;0.30;0.30;;;17.10;89.60;;;;;;4431026;32;20165;-65
2021/05/30 08:16:39;;;;;;;0.28;0.28;;;17.10;89.80;;;;;;4430750;32;20073;-64
2021/05/30 08:19:05;;;;;;;0.30;0.30;;;17.20;90.10;;;;;;4431578;32;20118;-64
2021/05/30 08:21:31;;;;;;;0.40;0.40;;;17.20;88.00;;;;;;4431935;32;20061;-64
2021/05/30 08:23:56;;;;;;;0.85;0.57;;;17.30;90.30;;;;;;4415915;32;20424;-64
2021/05/30 08:26:23;;;;;;;0.98;0.50;;;17.40;87.30;;;;;;4430659;32;20065;-65
2021/05/30 08:28:49;;;;;;;0.60;0.57;;;17.50;88.60;;;;;;4430301;32;20062;-65
2021/05/30 08:31:15;;;;;;;0.52;0.52;;;17.60;85.50;;;;;;4431072;32;20186;-65
2021/05/30 08:33:40;;;;;;;0.50;0.50;;;17.60;86.60;;;;;;4431575;32;20077;-65
2021/05/30 08:36:06;;;;;;;0.30;0.30;;;17.70;86.30;;;;;;4431407;32;20069;-65
2021/05/30 08:38:32;;;;;;;0.25;0.25;;;17.90;88.40;;;;;;4431977;32;20062;-65
2021/05/30 08:40:58;;;;;;;0.20;0.20;;;18.00;87.90;;;;;;4429521;32;20091;-65
2021/05/30 08:43:24;;;;;;;0.20;0.20;;;18.00;85.00;;;;;;4417092;32;20479;-64
2021/05/30 08:45:50;;;;;;;0.45;0.45;;;17.90;85.20;;;;;;4392259;32;20126;-64
2021/05/30 08:48:16;;;;;;;0.25;0.25;;;17.90;83.70;;;;;;4407099;32;20070;-64
2021/05/30 08:50:41;;;;;;;0.22;0.22;;;17.90;84.50;;;;;;4399735;32;20091;-65
2021/05/30 08:53:08;;;;;;;0.50;0.50;;;17.80;85.40;;;;;;4410352;32;20417;-64
2021/05/30 08:55:33;;;;;;;0.40;0.40;;;18.00;87.20;;;;;;4416580;32;20089;-65
2021/05/30 08:57:59;;;;;;;0.20;0.20;;;18.20;86.80;;;;;;4414669;32;20078;-65
2021/05/30 09:00:27;;;;;;;0.43;0.43;;;18.40;84.90;;;;;;4415655;32;20081;-64
2021/05/30 09:03:12;;;;;;;1.37;0.40;;;18.40;81.70;;;;;;4417209;32;20061;-64
2021/05/30 09:05:39;;;;;;;0.28;0.28;;;18.40;80.20;;;;;;4414935;32;20428;-65
2021/05/30 09:08:04;;;;;;;0.32;0.32;;;18.40;79.30;;;;;;4415657;32;20112;-65
2021/05/30 09:10:30;;;;;;;0.17;0.17;;;18.50;80.70;;;;;;4415006;32;20480;-65
2021/05/30 09:13:05;;;;;;;0.20;0.20;;;18.60;77.10;;;;;;4422213;32;20074;-64
2021/05/30 09:15:51;;;;;;;0.20;0.20;;;18.50;76.70;;;;;;4416415;32;20112;-64
2021/05/30 09:18:20;;;;;;;0.40;0.40;;;18.60;79.30;;;;;;4419363;32;20432;-64
2021/05/30 09:21:05;;;;;;;0.70;0.37;;;18.70;77.40;;;;;;4417146;32;20124;-64
2021/05/30 09:23:46;;;;;;;0.30;0.30;;;18.80;78.90;;;;;;4431237;32;20383;-65
2021/05/30 09:26:16;;;;;;;0.50;0.50;;;18.80;75.40;;;;;;4430560;32;20069;-65
2021/05/30 09:29:09;;;;;;;0.30;0.30;;;18.80;76.00;;;;;;4418526;32;20089;-65
2021/05/30 09:31:52;;;;;;;0.30;0.30;;;18.90;77.60;;;;;;4429437;32;20070;-65
2021/05/30 09:34:35;;;;;;;0.40;0.40;;;19.20;77.80;;;;;;4418957;32;20053;-65
2021/05/30 09:37:01;;;;;;;0.20;0.20;;;19.20;76.40;;;;;;4431584;32;20413;-65
2021/05/30 09:39:45;;;;;;;0.52;0.52;;;19.30;75.50;;;;;;4404658;32;72658;-65
2021/05/30 09:42:33;;;;;;;0.20;0.20;;;19.30;74.80;;;;;;4445738;32;20502;-65
2021/05/30 09:45:02;;;;;;;0.37;0.32;;;19.40;75.70;;;;;;4419804;32;20124;-64
2021/05/30 09:47:38;;;;;;;0.22;0.22;;;19.40;75.80;;;;;;4430937;32;20078;-64
2021/05/30 09:50:06;;;;;;;1.98;0.40;;;19.50;75.20;;;;;;4431516;32;20054;-64
2021/05/30 09:52:41;;;;;;;0.40;0.40;;;19.80;77.00;;;;;;4431115;32;20057;-64
2021/05/30 09:55:16;;;;;;;0.20;0.20;;;19.90;73.30;;;;;;4404673;32;20074;-64
2021/05/30 09:57:42;;;;;;;0.30;0.30;;;20.00;74.70;;;;;;4430055;32;20061;-64
2021/05/30 10:00:21;;;;;;;0.30;0.30;;;20.10;74.80;;;;;;4429277;32;20439;-64
2021/05/30 10:02:47;;;;;;;0.20;0.20;;;20.30;74.60;;;;;;4431104;32;20061;-64
2021/05/30 10:05:12;;;;;;;0.57;0.43;;;20.50;73.20;;;;;;4415964;32;20181;-65
2021/05/30 10:07:38;;;;;;;0.40;0.40;;;20.50;72.50;;;;;;4417046;32;20077;-64
2021/05/30 10:10:04;;;;;;;0.20;0.20;;;20.30;72.40;;;;;;4430777;32;20053;-63
2021/05/30 10:12:30;;;;;;;0.20;0.20;;;20.30;71.70;;;;;;4435738;32;20077;-65
2021/05/30 10:14:56;;;;;;;1.35;0.62;;;20.30;72.80;;;;;;4431671;32;20541;-65
2021/05/30 10:17:22;;;;;;;0.20;0.20;;;20.40;72.90;;;;;;4445749;32;20216;-66
2021/05/30 10:19:49;;;;;;;0.40;0.40;;;20.70;71.50;;;;;;4432063;32;20442;-64
2021/05/30 10:22:17;;;;;;;0.20;0.20;;;21.00;70.90;;;;;;4430695;32;20069;-65
2021/05/30 10:24:44;;;;;;;0.80;0.40;;;21.20;68.80;;;;;;4430334;32;20130;-65
2021/05/30 10:27:15;;;;;;;0.20;0.20;;;21.20;68.80;;;;;;4431151;32;20399;-64
2021/05/30 10:30:01;;;;;;;0.20;0.20;;;21.50;70.90;;;;;;4433627;32;20065;-65
2021/05/30 10:32:26;;;;;;;0.20;0.20;;;21.60;69.70;;;;;;4423946;32;20077;-65
2021/05/30 10:35:28;;;;;;;0.20;0.20;;;21.70;66.80;;;;;;4445526;32;20548;-64
2021/05/30 10:37:54;;;;;;;;;;;21.60;68.20;;;;;;4436736;32;20066;-64
2021/05/30 10:40:23;;;;;;;0.40;0.40;;;21.80;67.90;;;;;;4445905;32;19955;-64
2021/05/30 10:43:10;;;;;;;0.40;0.40;;;21.90;68.50;;;;;;4443684;32;20123;-64
2021/05/30 10:45:56;;;;;;;0.25;0.25;;;22.40;66.10;;;;;;4418344;32;20499;-64
2021/05/30 10:48:22;;;;;;;1.90;0.60;;;22.10;65.20;;;;;;4428816;32;20101;-65
2021/05/30 10:51:09;;;;;;;0.30;0.30;;;22.00;66.70;;;;;;4429741;32;20057;-65
2021/05/30 10:53:41;;;;;;;0.20;0.20;;;22.10;68.20;;;;;;4430400;32;20072;-65
2021/05/30 10:56:30;;;;;;;0.20;0.20;;;22.10;67.20;;;;;;4428828;32;20066;-65
2021/05/30 10:59:06;;;;;;;2.92;0.85;;;22.40;63.60;;;;;;4418232;32;20073;-64
2021/05/30 11:01:40;;;;;;;0.32;0.32;;;22.30;64.30;;;;;;4428287;32;20062;-65
2021/05/30 11:04:28;;;;;;;0.43;0.43;;;22.40;65.50;;;;;;4415388;32;20065;-65
2021/05/30 11:06:58;;;;;;;0.93;0.62;;;22.50;64.90;;;;;;4418796;32;20077;-65
2021/05/30 11:09:44;;;;;;;0.40;0.40;;;22.70;63.80;;;;;;4416081;32;20073;-64
2021/05/30 11:12:20;;;;;;;0.40;0.40;;;23.00;63.50;;;;;;4417133;32;20085;-65
2021/05/30 11:15:07;;;;;;;0.30;0.30;;;22.90;62.00;;;;;;4415170;32;20132;-65
2021/05/30 11:17:35;;;;;;;0.20;0.20;;;23.00;62.80;;;;;;4418369;32;20065;-65
2021/05/30 11:20:00;;;;;;;0.40;0.40;;;23.30;63.10;;;;;;4429382;32;20103;-65
2021/05/30 11:22:26;;;;;;;0.98;0.57;;;23.30;60.50;;;;;;4428825;32;20069;-65
2021/05/30 11:24:57;;;;;;;0.80;0.30;;;23.50;62.80;;;;;;4429464;32;20515;-65
2021/05/30 11:27:23;;;;;;;1.70;0.52;;;23.70;61.80;;;;;;4403313;32;20070;-65
2021/05/30 11:29:48;;;;;;;0.37;0.37;;;23.70;59.80;;;;;;4415602;32;20248;-65
2021/05/30 11:32:15;;;;;;;0.47;0.30;;;24.10;60.70;;;;;;4429235;32;20085;-65
2021/05/30 11:34:41;;;;;;;7.07;1.62;;;24.40;60.20;;;;;;4414894;32;20077;-65
2021/05/30 11:37:10;;;;;;;0.13;0.13;;;24.40;59.20;;;;;;4428611;32;20142;-65
2021/05/30 11:39:38;;;;;;;0.35;0.35;;;24.60;59.30;;;;;;4415628;32;20538;-65
2021/05/30 11:42:04;;;;;;;0.20;0.20;;;24.70;58.60;;;;;;4429706;32;20112;-65
2021/05/30 11:44:31;;;;;;;0.20;0.20;;;24.80;58.20;;;;;;4439397;32;20081;-65
2021/05/30 11:47:02;;;;;;;0.22;0.22;;;24.70;57.90;;;;;;4428852;32;20157;-65
2021/05/30 11:49:29;;;;;;;12.70;0.37;;;24.60;59.40;;;;;;4414999;32;20089;-65
2021/05/30 11:52:04;;;;;;;0.20;0.20;;;24.90;57.30;;;;;;4429403;32;20073;-65
2021/05/30 11:54:33;;;;;;;0.17;0.17;;;24.60;57.50;;;;;;4415943;32;20121;-65
2021/05/30 11:57:03;;;;;;;0.20;0.20;;;24.70;57.60;;;;;;4428350;32;20085;-65
2021/05/30 11:59:32;;;;;;;0.28;0.28;;;25.30;57.70;;;;;;4414144;32;20081;-65
2021/05/30 12:01:59;;;;;;;0.10;0.10;;;25.70;55.80;;;;;;4414910;32;20066;-65
2021/05/30 12:04:29;;;;;;;0.93;0.50;;;25.90;54.90;;;;;;4402610;32;20081;-63
2021/05/30 12:06:54;;;;;;;0.10;0.10;;;25.80;54.80;;;;;;4414470;32;20129;-65
2021/05/30 12:09:21;;;;;;;0.00;0.00;;;25.80;56.00;;;;;;4414279;32;20080;-65
2021/05/30 12:11:47;;;;;;;0.10;0.10;;;26.00;56.70;;;;;;4415692;32;20532;-65
2021/05/30 12:14:13;;;;;;;0.68;0.52;;;26.70;55.40;;;;;;4413893;32;20432;-65
2021/05/30 12:16:39;;;;;;;0.20;0.20;;;26.60;54.60;;;;;;4414581;32;20125;-65
2021/05/30 12:19:06;;;;;;;0.05;0.05;;;26.80;54.90;;;;;;4428281;32;20475;-65
2021/05/30 12:21:41;;;;;;;0.08;0.08;;;27.00;56.10;;;;;;4428216;32;20070;-65
2021/05/30 12:24:09;;;;;;;0.10;0.10;;;27.30;52.90;;;;;;4401964;32;20303;-65
2021/05/30 12:26:35;;;;;;;0.30;0.30;;;26.30;52.70;;;;;;4402361;32;20086;-65
2021/05/30 12:29:01;;;;;;;0.32;0.32;;;24.90;55.50;;;;;;4428369;32;20062;-64
2021/05/30 12:31:26;;;;;;;0.30;0.30;;;23.60;59.00;;;;;;4427528;32;20554;-64
2021/05/30 12:33:55;;;;;;;0.17;0.17;;;24.10;58.40;;;;;;4427694;32;20585;-65
2021/05/30 12:36:48;;;;;;;0.10;0.10;;;24.10;58.20;;;;;;4414650;32;20400;-65
2021/05/30 12:39:17;;;;;;;2.60;0.52;;;23.80;58.60;;;;;;4417996;32;20190;-65
2021/05/30 12:41:46;;;;;;;0.10;0.10;;;24.20;57.00;;;;;;4427689;32;20082;-64
2021/05/30 12:44:14;;;;;;;0.10;0.10;;;24.90;57.30;;;;;;4438052;32;20085;-65
2021/05/30 12:46:54;;;;;;;0.13;0.13;;;25.70;55.90;;;;;;4430329;32;20081;-65
2021/05/30 12:49:20;;;;;;;0.70;0.17;;;26.30;53.20;;;;;;4432338;32;20086;-65
2021/05/30 12:52:08;;;;;;;0.20;0.20;;;26.50;54.30;;;;;;4419576;32;20061;-65